Time;durP1;ratioP1;P1;durP2;ratioP2;P2;SDS_P1;SDS_P2;PMS_P1;PMS_P2;Temp;Humidity;BMP_temperature;BMP_pressure;BME280_temperature;BME280_humidity;BME280_pressure;Samples;Min_cycle;Max_cycle;Signal;HPM_P1;HPM_P2
2022/11/24 00:01:18;;;;;;;1.40;0.55;;;24.00;67.50;;;;;;5075062;28;20362;-88
2022/11/24 00:03:47;;;;;;;1.50;0.60;;;24.10;67.50;;;;;;5057684;28;20731;-87
2022/11/24 00:06:15;;;;;;;1.13;0.55;;;24.00;65.60;;;;;;5057039;28;20959;-90
2022/11/24 00:08:44;;;;;;;1.70;0.50;;;23.90;64.90;;;;;;5074224;28;20386;-89
2022/11/24 00:11:24;;;;;;;2.15;0.50;;;24.70;68.50;;;;;;5056574;28;20824;-87
2022/11/24 00:13:51;;;;;;;2.00;0.50;;;24.50;65.10;;;;;;5073946;28;20382;-86
2022/11/24 00:16:23;;;;;;;2.78;0.50;;;24.70;64.60;;;;;;5073757;28;20381;-87
2022/11/24 00:18:52;;;;;;;0.80;0.30;;;24.80;63.90;;;;;;5073920;28;20469;-86
2022/11/24 00:21:20;;;;;;;1.50;0.50;;;24.80;64.00;;;;;;5073467;28;20381;-86
2022/11/24 00:23:49;;;;;;;1.08;0.50;;;25.00;63.90;;;;;;5073475;28;20390;-86
2022/11/24 00:26:19;;;;;;;0.65;0.40;;;25.00;63.40;;;;;;5074235;28;20366;-90
2022/11/24 00:28:48;;;;;;;1.85;0.50;;;25.00;62.70;;;;;;5075398;28;20378;-86
2022/11/24 00:31:24;;;;;;;0.80;0.50;;;25.10;64.50;;;;;;5055994;28;20413;-88
2022/11/24 00:33:54;;;;;;;0.47;0.40;;;25.10;63.20;;;;;;5065764;28;20415;-87
2022/11/24 00:36:23;;;;;;;1.33;0.38;;;25.00;64.00;;;;;;5069201;28;20869;-86
2022/11/24 00:38:58;;;;;;;1.33;0.50;;;25.10;63.10;;;;;;5073262;28;20381;-88
2022/11/24 00:41:26;;;;;;;2.53;0.50;;;25.40;62.10;;;;;;5072616;28;20376;-90
2022/11/24 00:43:54;;;;;;;2.85;0.50;;;26.10;60.70;;;;;;5073137;28;20382;-87
2022/11/24 00:46:22;;;;;;;0.67;0.40;;;26.80;59.30;;;;;;5073198;28;20822;-88
2022/11/24 00:48:49;;;;;;;1.55;0.47;;;27.10;58.60;;;;;;5067927;28;20387;-87
2022/11/24 00:51:18;;;;;;;1.55;0.40;;;26.60;61.60;;;;;;5066926;28;20418;-86
2022/11/24 00:53:45;;;;;;;0.93;0.40;;;26.40;60.60;;;;;;5072682;28;20476;-86
2022/11/24 00:56:12;;;;;;;0.90;0.50;;;26.50;60.40;;;;;;5073001;28;20394;-87
2022/11/24 00:58:40;;;;;;;1.70;0.40;;;26.70;59.60;;;;;;5072804;28;20544;-86
2022/11/24 01:01:13;;;;;;;0.77;0.40;;;26.70;58.80;;;;;;5073088;28;20412;-88
2022/11/24 01:03:41;;;;;;;2.22;0.40;;;26.50;57.00;;;;;;5072765;28;20409;-86
2022/11/24 01:06:20;;;;;;;1.02;0.30;;;26.20;58.30;;;;;;5072219;28;20789;-86
2022/11/24 01:08:47;;;;;;;2.28;0.50;;;26.80;56.80;;;;;;5073056;28;20738;-86
2022/11/24 01:11:19;;;;;;;0.95;0.40;;;26.80;57.10;;;;;;5063901;28;20429;-86
2022/11/24 01:13:48;;;;;;;1.60;0.30;;;27.30;56.10;;;;;;5054022;28;20384;-87
2022/11/24 01:16:34;;;;;;;1.52;0.50;;;27.60;55.10;;;;;;5072316;28;20448;-86
2022/11/24 01:19:02;;;;;;;1.63;0.30;;;27.90;54.90;;;;;;5072578;28;20737;-86
2022/11/24 01:21:29;;;;;;;1.70;0.30;;;28.10;53.80;;;;;;5072773;28;20435;-88
2022/11/24 01:23:57;;;;;;;0.50;0.30;;;27.60;53.40;;;;;;5072919;28;20386;-89
2022/11/24 01:26:24;;;;;;;1.27;0.40;;;27.40;55.40;;;;;;5072536;28;20384;-86
2022/11/24 01:28:56;;;;;;;0.95;0.35;;;27.30;56.00;;;;;;5054575;28;20481;-89
2022/11/24 01:31:23;;;;;;;1.53;0.30;;;27.10;54.80;;;;;;5069400;28;20423;-87
2022/11/24 01:33:51;;;;;;;1.05;0.43;;;27.20;55.60;;;;;;5052603;28;20368;-86
2022/11/24 01:36:19;;;;;;;1.37;0.50;;;27.10;55.40;;;;;;5068652;28;20407;-87
2022/11/24 01:38:46;;;;;;;1.48;0.40;;;27.00;54.40;;;;;;5073383;28;20465;-88
2022/11/24 01:41:15;;;;;;;1.08;0.30;;;27.10;55.80;;;;;;5072011;28;20370;-87
2022/11/24 01:43:44;;;;;;;0.47;0.40;;;28.00;55.00;;;;;;5065625;28;20415;-88
2022/11/24 01:46:17;;;;;;;1.20;0.30;;;28.60;53.90;;;;;;5064741;28;20417;-86
2022/11/24 01:48:49;;;;;;;0.70;0.50;;;29.20;52.30;;;;;;5071917;28;20401;-89
2022/11/24 01:51:23;;;;;;;2.20;0.40;;;29.70;50.80;;;;;;5072196;28;20362;-86
2022/11/24 01:53:58;;;;;;;2.50;0.40;;;28.90;50.90;;;;;;5066336;28;20728;-88
2022/11/24 01:56:26;;;;;;;3.50;0.40;;;28.80;51.70;;;;;;5064445;28;20433;-86
2022/11/24 01:58:58;;;;;;;1.60;0.50;;;29.30;52.50;;;;;;5071987;28;20385;-90
2022/11/24 02:01:25;;;;;;;2.03;0.50;;;30.00;52.10;;;;;;5071973;28;20362;-87
2022/11/24 02:03:52;;;;;;;3.67;0.50;;;30.20;51.40;;;;;;5072209;28;20872;-87
2022/11/24 02:06:27;;;;;;;1.38;0.50;;;30.10;50.40;;;;;;5071779;28;20369;-88
2022/11/24 02:09:12;;;;;;;4.47;0.80;;;29.40;50.60;;;;;;5071473;28;20370;-86
2022/11/24 02:11:41;;;;;;;3.42;0.40;;;29.40;51.80;;;;;;5072299;28;20363;-87
2022/11/24 02:14:11;;;;;;;2.05;0.50;;;29.90;49.30;;;;;;5071689;28;20378;-91
2022/11/24 02:16:40;;;;;;;2.20;0.40;;;30.80;48.90;;;;;;5072137;28;20390;-91
2022/11/24 02:19:22;;;;;;;1.80;0.40;;;31.30;46.80;;;;;;5071244;28;20377;-86
2022/11/24 02:21:54;;;;;;;0.90;0.50;;;31.70;48.00;;;;;;5053819;28;20378;-89
2022/11/24 02:24:55;;;;;;;1.60;0.40;;;31.70;45.70;;;;;;5073063;28;20862;-87
2022/11/24 02:27:22;;;;;;;0.95;0.40;;;32.20;45.60;;;;;;5074348;28;20392;-86
2022/11/24 02:29:49;;;;;;;1.30;0.40;;;30.90;46.60;;;;;;5075028;28;20382;-89
2022/11/24 02:32:17;;;;;;;1.55;0.40;;;31.10;47.70;;;;;;5073808;28;20393;-86
2022/11/24 02:34:44;;;;;;;1.53;0.40;;;31.80;47.00;;;;;;5073916;28;20370;-88
2022/11/24 02:37:11;;;;;;;1.33;0.40;;;31.90;46.80;;;;;;5073805;28;20412;-86
2022/11/24 02:39:38;;;;;;;0.93;0.30;;;32.10;46.20;;;;;;5071049;28;20468;-88
2022/11/24 02:42:09;;;;;;;0.98;0.38;;;32.40;45.40;;;;;;5071249;28;20452;-87
2022/11/24 02:44:41;;;;;;;6.50;0.60;;;32.60;45.00;;;;;;5070880;28;20374;-85
2022/11/24 02:47:11;;;;;;;0.60;0.50;;;32.90;44.70;;;;;;5071908;28;20435;-88
2022/11/24 02:49:39;;;;;;;0.80;0.40;;;33.20;44.70;;;;;;5071642;28;20465;-91
2022/11/24 02:52:06;;;;;;;1.70;0.40;;;33.10;44.10;;;;;;5071775;28;20373;-91
2022/11/24 02:54:34;;;;;;;2.10;0.30;;;32.90;45.00;;;;;;5071752;28;20379;-88
2022/11/24 02:57:02;;;;;;;1.35;0.40;;;33.10;44.30;;;;;;5071606;28;20438;-87
2022/11/24 02:59:29;;;;;;;1.98;0.50;;;32.60;44.50;;;;;;5071412;28;20791;-87
2022/11/24 03:01:56;;;;;;;0.68;0.30;;;31.40;44.70;;;;;;5071437;28;20370;-88
2022/11/24 03:04:23;;;;;;;1.33;0.30;;;30.80;46.20;;;;;;5071823;28;20908;-90
2022/11/24 03:06:50;;;;;;;1.15;0.30;;;30.70;46.10;;;;;;5072042;28;20770;-94
2022/11/24 03:09:17;;;;;;;2.38;0.57;;;30.70;45.80;;;;;;5072000;28;20378;-87
2022/11/24 03:11:44;;;;;;;3.67;0.50;;;30.90;46.10;;;;;;5071905;28;20413;-87
2022/11/24 03:14:11;;;;;;;2.95;0.50;;;30.80;45.90;;;;;;5070874;28;20378;-86
2022/11/24 03:16:38;;;;;;;3.05;0.50;;;31.20;46.90;;;;;;5071079;28;20370;-87
2022/11/24 03:19:05;;;;;;;2.27;0.50;;;32.10;46.50;;;;;;5071330;28;20793;-90
2022/11/24 03:21:32;;;;;;;1.38;0.50;;;32.60;45.40;;;;;;5071561;28;20679;-86
2022/11/24 03:23:59;;;;;;;2.75;0.50;;;33.00;43.70;;;;;;5072026;28;20699;-90
2022/11/24 03:26:26;;;;;;;2.78;0.43;;;32.80;43.80;;;;;;5057793;28;20857;-87
2022/11/24 03:28:56;;;;;;;2.83;0.50;;;33.60;43.00;;;;;;5074609;28;20454;-87
2022/11/24 03:31:23;;;;;;;9.07;0.90;;;34.30;43.20;;;;;;5076093;28;20403;-88
2022/11/24 03:33:50;;;;;;;3.53;0.50;;;35.00;42.30;;;;;;5075185;28;20465;-87
2022/11/24 03:36:18;;;;;;;5.45;0.63;;;34.70;41.10;;;;;;5074964;28;20377;-88
2022/11/24 03:38:44;;;;;;;4.57;0.60;;;34.40;41.90;;;;;;5075008;28;20462;-88
2022/11/24 03:41:12;;;;;;;2.22;0.50;;;34.10;41.70;;;;;;5074748;28;20381;-88
2022/11/24 03:43:39;;;;;;;3.85;0.60;;;34.10;42.40;;;;;;5075399;28;20377;-87
2022/11/24 03:46:06;;;;;;;3.10;0.43;;;34.60;42.40;;;;;;5075449;28;20374;-85
2022/11/24 03:48:33;;;;;;;4.00;0.40;;;35.20;41.30;;;;;;5074856;28;20423;-87
2022/11/24 03:51:02;;;;;;;1.00;0.40;;;35.60;40.80;;;;;;5064541;28;20403;-87
2022/11/24 03:53:30;;;;;;;0.80;0.35;;;35.40;40.40;;;;;;5071998;28;20902;-90
2022/11/24 03:55:58;;;;;;;1.15;0.40;;;35.10;41.00;;;;;;5059502;28;20873;-90
2022/11/24 03:58:28;;;;;;;4.60;0.60;;;34.10;40.00;;;;;;5076015;28;20441;-87
2022/11/24 04:00:55;;;;;;;6.57;0.55;;;32.30;42.50;;;;;;5075051;28;20381;-91
2022/11/24 04:03:23;;;;;;;0.77;0.40;;;31.60;43.70;;;;;;5061266;28;20403;-87
2022/11/24 04:05:50;;;;;;;2.85;0.50;;;31.40;44.60;;;;;;5056880;28;20378;-87
2022/11/24 04:08:18;;;;;;;2.10;0.40;;;31.90;43.50;;;;;;5056729;28;20893;-93
2022/11/24 04:10:48;;;;;;;2.15;0.50;;;32.60;42.70;;;;;;5074372;28;20405;-88
2022/11/24 04:13:17;;;;;;;5.57;0.90;;;32.10;43.40;;;;;;5065162;28;20383;-86
2022/11/24 04:15:44;;;;;;;3.78;1.10;;;32.40;45.50;;;;;;5063100;28;20474;-89
2022/11/24 04:18:12;;;;;;;5.25;1.10;;;33.20;45.70;;;;;;5078434;28;20493;-89
2022/11/24 04:20:40;;;;;;;4.88;1.00;;;33.20;44.60;;;;;;5064269;28;20374;-86
2022/11/24 04:23:08;;;;;;;5.13;1.13;;;31.90;45.90;;;;;;5083097;28;20390;-86
2022/11/24 04:25:35;;;;;;;2.55;1.00;;;30.70;46.90;;;;;;5077659;28;20377;-89
2022/11/24 04:28:03;;;;;;;3.28;1.15;;;31.10;47.60;;;;;;5068122;28;20394;-90
2022/11/24 04:30:30;;;;;;;3.85;1.00;;;31.90;46.90;;;;;;5074177;28;20376;-90
2022/11/24 04:32:57;;;;;;;5.53;1.10;;;32.50;47.40;;;;;;5072357;28;20408;-85
2022/11/24 04:35:25;;;;;;;4.90;1.20;;;33.10;46.40;;;;;;5062236;28;20398;-88
2022/11/24 04:37:52;;;;;;;1.83;1.00;;;33.00;46.50;;;;;;5073518;28;20436;-87
2022/11/24 04:40:19;;;;;;;3.03;1.20;;;33.20;46.10;;;;;;5041498;28;20811;-86
2022/11/24 04:42:54;;;;;;;5.37;1.20;;;33.60;45.60;;;;;;5057525;28;20419;-88
2022/11/24 04:45:22;;;;;;;5.05;1.15;;;33.90;45.30;;;;;;5063267;28;20382;-86
2022/11/24 04:47:49;;;;;;;3.78;1.05;;;33.90;45.20;;;;;;5061664;28;20891;-88
2022/11/24 04:50:16;;;;;;;5.82;1.10;;;34.10;44.50;;;;;;5057173;28;20389;-89
2022/11/24 04:52:44;;;;;;;4.00;1.10;;;34.20;44.30;;;;;;5071376;28;20386;-86
2022/11/24 04:55:11;;;;;;;6.30;1.20;;;34.10;45.40;;;;;;5073339;28;20448;-86
2022/11/24 04:57:38;;;;;;;3.20;1.15;;;33.70;44.60;;;;;;5073743;28;20498;-85
2022/11/24 05:00:06;;;;;;;4.43;1.23;;;33.30;45.40;;;;;;5062278;28;20441;-87
2022/11/24 05:02:33;;;;;;;4.27;1.10;;;33.40;45.60;;;;;;5073576;28;20378;-87
2022/11/24 05:05:00;;;;;;;2.63;1.20;;;33.50;45.80;;;;;;5074943;28;20873;-90
2022/11/24 05:07:27;;;;;;;4.00;1.13;;;33.50;45.50;;;;;;5068248;28;20767;-87
2022/11/24 05:12:39;;;;;;;2.85;0.98;;;33.20;45.50;;;;;;5047516;28;20411;-88
2022/11/24 05:15:07;;;;;;;3.40;1.00;;;33.30;45.90;;;;;;5061464;28;20944;-86
2022/11/24 05:17:38;;;;;;;3.83;1.20;;;33.30;45.30;;;;;;5055837;28;20789;-88
2022/11/24 05:20:06;;;;;;;4.10;1.10;;;33.50;45.20;;;;;;5073636;28;20484;-92
2022/11/24 05:22:33;;;;;;;3.97;1.10;;;33.60;44.90;;;;;;5059309;28;20426;-89
2022/11/24 05:25:00;;;;;;;4.15;1.15;;;33.60;45.80;;;;;;5051629;28;20377;-90
2022/11/24 05:27:28;;;;;;;3.95;1.00;;;33.80;45.10;;;;;;5060526;28;20768;-87
2022/11/24 05:29:55;;;;;;;3.85;1.25;;;33.80;45.50;;;;;;5057312;28;20370;-88
2022/11/24 05:32:22;;;;;;;2.27;0.93;;;33.40;45.70;;;;;;5072448;28;20370;-88
2022/11/24 05:34:49;;;;;;;3.80;1.10;;;33.10;46.20;;;;;;5072111;28;20862;-89
2022/11/24 05:37:16;;;;;;;4.93;1.20;;;33.00;46.40;;;;;;5071996;28;20398;-88
2022/11/24 05:39:43;;;;;;;4.07;1.20;;;32.80;46.50;;;;;;5070182;28;20391;-87
2022/11/24 05:44:56;;;;;;;2.70;0.90;;;32.60;47.10;;;;;;5068603;28;20442;-87
2022/11/24 05:47:24;;;;;;;2.53;1.10;;;32.70;47.00;;;;;;5072855;28;20421;-86
2022/11/24 05:49:51;;;;;;;2.97;1.20;;;32.70;46.70;;;;;;5071648;28;20370;-88
2022/11/24 05:52:18;;;;;;;5.07;1.10;;;32.40;47.20;;;;;;5059143;28;20820;-89
2022/11/24 05:54:45;;;;;;;2.53;0.90;;;32.10;47.50;;;;;;5071610;28;20377;-90
2022/11/24 05:57:12;;;;;;;2.90;0.90;;;32.00;47.80;;;;;;5072321;28;20871;-88
2022/11/24 05:59:39;;;;;;;3.40;1.10;;;31.80;48.50;;;;;;5060977;28;20371;-89
2022/11/24 06:02:06;;;;;;;3.00;0.93;;;32.00;47.70;;;;;;5069829;28;20370;-92
2022/11/24 06:04:33;;;;;;;2.80;1.00;;;32.00;48.30;;;;;;5072499;28;20477;-89
2022/11/24 06:07:00;;;;;;;2.07;0.90;;;31.60;48.60;;;;;;5072558;28;20374;-90
2022/11/24 06:09:30;;;;;;;3.60;1.02;;;31.50;49.00;;;;;;5073077;28;20861;-89
2022/11/24 06:11:57;;;;;;;2.40;1.00;;;31.40;49.40;;;;;;5072577;28;20440;-89
2022/11/24 06:14:24;;;;;;;2.08;0.90;;;31.40;49.50;;;;;;5066022;28;20387;-87
2022/11/24 06:16:51;;;;;;;3.17;1.00;;;31.10;49.90;;;;;;5034751;28;20398;-90
2022/11/24 06:19:18;;;;;;;3.00;0.90;;;30.80;50.00;;;;;;5071837;28;20390;-88
2022/11/24 06:21:45;;;;;;;2.70;0.98;;;30.60;50.50;;;;;;5072256;28;20461;-89
2022/11/24 06:24:13;;;;;;;3.42;0.98;;;30.40;50.60;;;;;;5071534;28;20433;-91
2022/11/24 06:26:41;;;;;;;4.97;0.98;;;30.50;50.40;;;;;;5071646;28;20501;-91
2022/11/24 06:29:08;;;;;;;4.22;1.05;;;30.60;50.40;;;;;;5073257;28;20511;-89
2022/11/24 06:31:34;;;;;;;3.40;0.90;;;30.50;50.80;;;;;;5072257;28;20374;-90
2022/11/24 06:34:04;;;;;;;4.82;1.08;;;30.40;51.00;;;;;;5061039;28;21038;-89
2022/11/24 06:36:31;;;;;;;3.97;1.10;;;30.30;51.40;;;;;;5068017;28;20422;-89
2022/11/24 06:39:01;;;;;;;2.33;1.10;;;30.20;52.60;;;;;;5071063;28;20378;-88
2022/11/24 06:41:28;;;;;;;2.83;1.03;;;30.20;53.20;;;;;;5056881;28;20376;-89
2022/11/24 06:43:55;;;;;;;2.67;1.00;;;29.90;53.10;;;;;;5071664;28;20422;-89
2022/11/24 06:46:22;;;;;;;3.53;1.05;;;29.70;53.90;;;;;;5071197;28;20423;-90
2022/11/24 06:48:52;;;;;;;3.72;1.30;;;29.70;54.30;;;;;;5070914;28;20857;-87
2022/11/24 06:51:19;;;;;;;4.43;1.10;;;29.70;54.10;;;;;;5070399;28;20378;-89
2022/11/24 06:53:46;;;;;;;4.40;1.00;;;29.70;54.10;;;;;;5070414;28;20374;-86
2022/11/24 06:56:17;;;;;;;2.92;1.00;;;29.80;54.20;;;;;;5070197;28;20397;-87
2022/11/24 06:58:50;;;;;;;4.07;1.20;;;29.80;54.10;;;;;;5066822;28;20526;-88
2022/11/24 07:01:22;;;;;;;4.32;1.17;;;29.60;55.00;;;;;;5061523;28;20370;-87
2022/11/24 07:03:49;;;;;;;3.00;1.20;;;29.50;55.60;;;;;;5070311;28;20370;-87
2022/11/24 07:06:17;;;;;;;4.90;1.20;;;29.50;55.80;;;;;;5070563;28;20373;-89
2022/11/24 07:08:45;;;;;;;4.63;1.10;;;29.40;55.60;;;;;;5070282;28;20382;-87
2022/11/24 07:11:16;;;;;;;4.22;1.00;;;29.30;56.40;;;;;;5071310;28;20397;-88
2022/11/24 07:13:44;;;;;;;3.15;1.00;;;29.20;56.40;;;;;;5070351;28;20390;-87
2022/11/24 07:16:22;;;;;;;3.83;1.20;;;28.90;56.10;;;;;;5070734;28;20381;-87
2022/11/24 07:18:50;;;;;;;3.90;1.10;;;28.70;56.60;;;;;;5069393;28;20920;-87
2022/11/24 07:21:19;;;;;;;4.32;1.10;;;28.60;57.40;;;;;;5057941;28;20374;-89
2022/11/24 07:23:53;;;;;;;3.88;1.00;;;28.50;57.70;;;;;;5060266;28;20384;-88
2022/11/24 07:26:21;;;;;;;3.20;1.10;;;28.50;57.60;;;;;;5067345;28;20409;-88
2022/11/24 07:28:48;;;;;;;4.60;1.10;;;28.30;57.80;;;;;;5070596;28;20393;-87
2022/11/24 07:31:19;;;;;;;2.83;1.00;;;28.20;58.50;;;;;;5070643;28;20377;-87
2022/11/24 07:33:53;;;;;;;3.03;1.10;;;27.90;59.00;;;;;;5070392;28;20435;-86
2022/11/24 07:36:21;;;;;;;3.47;1.10;;;27.60;59.70;;;;;;5052090;28;20395;-86
2022/11/24 07:38:49;;;;;;;4.95;1.33;;;27.40;60.70;;;;;;5069149;28;20485;-89
2022/11/24 07:41:18;;;;;;;4.47;1.17;;;27.10;61.10;;;;;;5067130;28;20392;-87
2022/11/24 07:43:45;;;;;;;5.07;1.30;;;27.00;61.40;;;;;;5054821;28;20442;-82
2022/11/24 07:46:15;;;;;;;3.37;1.10;;;26.90;61.50;;;;;;5059742;28;20445;-86
2022/11/24 07:48:43;;;;;;;5.83;1.20;;;26.80;62.10;;;;;;5070253;28;20382;-86
2022/11/24 07:51:10;;;;;;;5.38;1.27;;;26.60;62.30;;;;;;5070427;28;20880;-86
2022/11/24 07:53:37;;;;;;;4.68;1.48;;;26.40;63.00;;;;;;5052091;28;20374;-88
2022/11/24 07:56:05;;;;;;;2.47;1.00;;;26.10;63.50;;;;;;5070676;28;20382;-84
2022/11/24 07:58:35;;;;;;;4.50;1.30;;;25.70;64.50;;;;;;5067301;28;20407;-83
2022/11/24 08:01:19;;;;;;;4.88;1.60;;;25.20;65.80;;;;;;5072075;28;20374;-86
2022/11/24 08:03:46;;;;;;;6.53;1.50;;;24.80;67.20;;;;;;5054592;28;20860;-86
2022/11/24 08:06:14;;;;;;;5.97;1.60;;;24.30;68.70;;;;;;5070156;28;20380;-90
2022/11/24 08:08:41;;;;;;;4.07;1.40;;;24.00;70.10;;;;;;5048365;28;20715;-87
2022/11/24 08:11:14;;;;;;;6.43;1.70;;;23.70;70.70;;;;;;5066868;28;20770;-86
2022/11/24 08:13:41;;;;;;;6.20;1.50;;;23.50;72.10;;;;;;5037578;28;20415;-84
2022/11/24 08:16:11;;;;;;;6.82;3.28;;;23.20;73.70;;;;;;5070807;28;20388;-89
2022/11/24 08:18:38;;;;;;;9.02;2.92;;;23.00;74.80;;;;;;5065974;28;20441;-86
2022/11/24 08:21:06;;;;;;;6.00;1.67;;;22.80;75.70;;;;;;5069187;28;20368;-83
2022/11/24 08:23:34;;;;;;;4.47;1.45;;;22.50;76.70;;;;;;5053281;28;20392;-87
2022/11/24 08:26:07;;;;;;;4.82;1.60;;;22.60;77.40;;;;;;5068213;28;20439;-88
2022/11/24 08:28:35;;;;;;;5.10;1.70;;;22.50;77.60;;;;;;5047713;28;20420;-85
2022/11/24 08:31:04;;;;;;;5.03;1.65;;;22.50;78.10;;;;;;5058851;28;20415;-86
2022/11/24 08:33:32;;;;;;;5.40;1.70;;;22.40;78.50;;;;;;5056039;28;22207;-85
2022/11/24 08:36:04;;;;;;;7.03;1.42;;;22.40;79.70;;;;;;5066772;28;20465;-88
2022/11/24 08:38:31;;;;;;;4.57;1.40;;;22.40;81.00;;;;;;5073252;28;20400;-87
2022/11/24 08:41:07;;;;;;;5.45;1.70;;;22.20;82.40;;;;;;5073566;28;20392;-87
2022/11/24 08:43:34;;;;;;;5.38;1.40;;;22.10;84.10;;;;;;5054244;28;20483;-84
2022/11/24 08:46:09;;;;;;;7.65;1.58;;;22.10;86.10;;;;;;5062592;28;20384;-83
2022/11/24 08:48:36;;;;;;;4.97;1.45;;;22.00;88.70;;;;;;5070446;28;20392;-90
2022/11/24 08:51:10;;;;;;;6.40;1.70;;;22.00;90.20;;;;;;5073230;28;20457;-83
2022/11/24 08:53:37;;;;;;;5.88;1.70;;;22.00;90.80;;;;;;5053721;28;20795;-89
2022/11/24 08:56:05;;;;;;;4.68;1.58;;;22.00;91.30;;;;;;5074474;28;20402;-91
2022/11/24 08:58:32;;;;;;;6.00;1.73;;;22.00;92.30;;;;;;5074021;28;20403;-80
2022/11/24 09:01:09;;;;;;;5.68;1.70;;;22.00;92.90;;;;;;5075008;28;20450;-86
2022/11/24 09:03:38;;;;;;;7.28;1.88;;;22.00;93.60;;;;;;5077295;28;20374;-83
2022/11/24 09:06:06;;;;;;;5.90;1.70;;;21.90;94.20;;;;;;5050177;28;20387;-77
2022/11/24 09:08:34;;;;;;;6.97;1.80;;;21.90;94.70;;;;;;5064298;28;20419;-80
2022/11/24 09:11:06;;;;;;;7.03;2.08;;;21.80;95.30;;;;;;5063082;28;20406;-83
2022/11/24 09:13:34;;;;;;;6.20;2.03;;;21.70;96.00;;;;;;5076254;28;20417;-80
2022/11/24 09:16:10;;;;;;;7.95;2.10;;;21.60;96.90;;;;;;5051325;28;20390;-82
2022/11/24 09:18:37;;;;;;;7.50;2.10;;;21.60;97.20;;;;;;5054986;28;20824;-88
2022/11/24 09:21:07;;;;;;;5.83;2.40;;;21.60;97.40;;;;;;5063947;28;20397;-82
2022/11/24 09:23:35;;;;;;;5.43;2.38;;;21.70;97.60;;;;;;5076765;28;20378;-85
2022/11/24 09:26:14;;;;;;;10.02;3.08;;;21.70;97.90;;;;;;5076418;28;20458;-78
2022/11/24 09:28:42;;;;;;;7.88;2.50;;;21.70;98.10;;;;;;5028053;28;20476;-83
2022/11/24 09:31:11;;;;;;;9.45;2.38;;;21.60;98.40;;;;;;5017500;28;20906;-80
2022/11/24 09:33:39;;;;;;;7.22;2.63;;;21.70;98.60;;;;;;5038270;28;20600;-80
2022/11/24 09:36:07;;;;;;;6.45;2.00;;;21.60;98.80;;;;;;5026259;28;20399;-81
2022/11/24 09:38:34;;;;;;;7.57;2.20;;;21.60;98.60;;;;;;5024599;28;20431;-81
2022/11/24 09:41:23;;;;;;;6.93;2.28;;;21.50;99.00;;;;;;4995701;28;20419;-89
2022/11/24 09:43:50;;;;;;;7.00;2.03;;;21.50;99.00;;;;;;5014202;28;20394;-91
2022/11/24 09:46:29;;;;;;;10.05;2.70;;;21.50;99.20;;;;;;5021218;28;20385;-82
2022/11/24 09:48:57;;;;;;;9.43;2.38;;;21.40;99.50;;;;;;5008808;28;20385;-88
2022/11/24 09:51:31;;;;;;;9.32;2.63;;;21.40;99.60;;;;;;5026455;28;20473;-86
2022/11/24 09:54:08;;;;;;;8.50;2.30;;;21.40;99.60;;;;;;5034980;28;20417;-81
2022/11/24 09:56:39;;;;;;;7.97;2.15;;;21.40;99.70;;;;;;5019432;28;20411;-86
2022/11/24 09:59:19;;;;;;;8.00;2.43;;;21.30;99.90;;;;;;5021703;28;20397;-91
2022/11/24 10:01:48;;;;;;;6.60;2.30;;;21.20;99.90;;;;;;5026124;28;20874;-85
2022/11/24 10:04:41;;;;;;;8.23;2.28;;;21.20;99.90;;;;;;5021542;28;20373;-88
2022/11/24 10:07:29;;;;;;;6.32;2.10;;;21.00;99.90;;;;;;5053961;28;20392;-83
2022/11/24 10:09:58;;;;;;;9.77;2.95;;;20.90;99.90;;;;;;5067428;28;20427;-79
2022/11/24 10:13:02;;;;;;;6.88;2.13;;;20.90;99.90;;;;;;5053543;28;20364;-82
2022/11/24 10:15:44;;;;;;;8.55;1.90;;;20.90;99.90;;;;;;5048548;28;20387;-82
2022/11/24 10:18:47;;;;;;;8.65;2.15;;;20.70;99.90;;;;;;5050101;28;20566;-84
2022/11/24 10:21:22;;;;;;;7.78;2.30;;;20.60;99.90;;;;;;5045680;28;20449;-80
2022/11/24 10:24:00;;;;;;;6.97;2.10;;;20.60;99.90;;;;;;5066091;28;20431;-79
2022/11/24 10:26:36;;;;;;;7.03;1.83;;;20.50;99.90;;;;;;5072614;28;20420;-85
2022/11/24 10:29:28;;;;;;;7.22;2.00;;;20.40;99.90;;;;;;5067306;28;20894;-84
2022/11/24 10:31:56;;;;;;;7.70;2.00;;;20.40;99.90;;;;;;4964970;28;20454;-88
2022/11/24 10:34:48;;;;;;;8.87;2.07;;;20.30;99.90;;;;;;4972515;28;20399;-91
2022/11/24 10:37:27;;;;;;;7.13;2.22;;;20.30;99.90;;;;;;4978281;28;21244;-84
2022/11/24 10:40:11;;;;;;;8.55;1.92;;;20.20;99.90;;;;;;4979401;28;20955;-90
2022/11/24 10:42:39;;;;;;;8.52;1.90;;;20.30;99.90;;;;;;4990471;28;20399;-87
2022/11/24 10:45:21;;;;;;;9.13;2.28;;;20.30;99.90;;;;;;4975809;28;20493;-78
2022/11/24 10:47:49;;;;;;;7.28;2.08;;;20.30;99.90;;;;;;4988991;28;20905;-78
2022/11/24 10:50:24;;;;;;;7.75;2.20;;;20.20;99.90;;;;;;4995436;28;20425;-77
2022/11/24 10:53:00;;;;;;;8.27;1.90;;;20.30;99.90;;;;;;4982236;28;20398;-78
2022/11/24 10:55:56;;;;;;;7.85;2.10;;;20.30;99.90;;;;;;4991065;28;20464;-77
2022/11/24 10:58:34;;;;;;;7.75;2.25;;;20.20;99.90;;;;;;4996332;28;20460;-78
2022/11/24 11:01:13;;;;;;;8.45;2.28;;;20.20;99.90;;;;;;4993071;28;20429;-78
2022/11/24 11:04:00;;;;;;;7.38;1.92;;;20.10;99.90;;;;;;4976710;28;20390;-78
2022/11/24 11:06:31;;;;;;;10.03;2.10;;;20.00;99.90;;;;;;4962725;28;20390;-82
2022/11/24 11:09:22;;;;;;;8.40;2.10;;;20.00;99.90;;;;;;5025081;28;20377;-78
2022/11/24 11:11:52;;;;;;;6.88;1.98;;;19.90;99.90;;;;;;5064235;28;20386;-86
2022/11/24 11:14:36;;;;;;;7.50;2.55;;;19.90;99.90;;;;;;5074578;28;20446;-77
2022/11/24 11:17:31;;;;;;;8.68;2.33;;;19.80;99.90;;;;;;5060217;28;20389;-81
2022/11/24 11:20:20;;;;;;;6.97;2.10;;;19.80;99.90;;;;;;5053859;28;20901;-80
2022/11/24 11:22:49;;;;;;;7.90;2.00;;;19.70;99.90;;;;;;5062675;28;20399;-83
2022/11/24 11:25:32;;;;;;;9.10;2.00;;;19.80;99.90;;;;;;5068522;28;20976;-79
2022/11/24 11:28:31;;;;;;;8.23;2.00;;;19.80;99.90;;;;;;5068356;28;20401;-82
2022/11/24 11:31:04;;;;;;;9.02;2.38;;;19.90;99.90;;;;;;4987545;28;20400;-77
2022/11/24 11:33:35;;;;;;;8.77;2.30;;;20.00;99.90;;;;;;4988028;28;20860;-82
2022/11/24 11:36:09;;;;;;;7.65;2.15;;;20.10;99.90;;;;;;4993437;28;20476;-79
2022/11/24 11:38:38;;;;;;;8.93;2.50;;;20.10;99.90;;;;;;4992484;28;20417;-77
2022/11/24 11:41:11;;;;;;;10.03;2.03;;;20.20;99.90;;;;;;4993229;28;20476;-81
2022/11/24 11:43:40;;;;;;;8.18;2.28;;;20.30;99.90;;;;;;4976668;28;20420;-77
2022/11/24 11:46:17;;;;;;;8.27;2.22;;;20.30;99.90;;;;;;4980479;28;20390;-79
2022/11/24 11:48:46;;;;;;;7.30;2.17;;;20.20;99.90;;;;;;4973875;28;20818;-78
2022/11/24 11:51:25;;;;;;;7.57;2.08;;;20.30;99.90;;;;;;4981791;28;20397;-78
2022/11/24 11:54:02;;;;;;;8.73;2.25;;;20.20;99.90;;;;;;4983407;28;20389;-87
2022/11/24 11:56:32;;;;;;;8.47;2.17;;;20.10;99.90;;;;;;4996213;28;20401;-78
2022/11/24 11:59:13;;;;;;;9.50;2.30;;;20.20;99.90;;;;;;4992033;28;20789;-77
2022/11/24 12:02:01;;;;;;;9.07;2.28;;;20.10;99.90;;;;;;4986184;28;20401;-77
2022/11/24 12:04:49;;;;;;;8.23;2.10;;;20.00;99.90;;;;;;4980253;28;20410;-78
2022/11/24 12:07:54;;;;;;;8.07;2.13;;;20.00;99.90;;;;;;5052352;28;20413;-80
2022/11/24 12:11:02;;;;;;;8.70;2.33;;;20.00;99.90;;;;;;4972910;28;20914;-84
2022/11/24 12:13:31;;;;;;;10.15;2.40;;;20.00;99.90;;;;;;4900064;29;20413;-83
2022/11/24 12:16:28;;;;;;;8.68;2.20;;;20.00;99.90;;;;;;4897105;29;20400;-83
2022/11/24 12:19:10;;;;;;;7.60;2.20;;;20.00;99.90;;;;;;4902440;29;20923;-78
2022/11/24 12:21:49;;;;;;;9.68;2.42;;;20.00;99.90;;;;;;4903894;29;20403;-82
2022/11/24 12:24:30;;;;;;;8.30;2.10;;;20.00;99.90;;;;;;4911369;29;20428;-78
2022/11/24 12:27:12;;;;;;;9.20;2.30;;;20.00;99.90;;;;;;4900133;29;20445;-87
2022/11/24 12:30:11;;;;;;;7.87;2.10;;;19.90;99.90;;;;;;4901322;29;20417;-83
2022/11/24 12:32:59;;;;;;;9.40;2.40;;;20.00;99.90;;;;;;4897768;29;20422;-79
2022/11/24 12:35:44;;;;;;;10.23;2.30;;;20.00;99.90;;;;;;4906253;29;20402;-82
2022/11/24 12:38:30;;;;;;;8.68;2.20;;;19.90;99.90;;;;;;4905699;29;20951;-78
2022/11/24 12:41:24;;;;;;;11.02;2.38;;;19.90;99.90;;;;;;4895801;29;20917;-78
2022/11/24 12:43:54;;;;;;;9.17;2.27;;;19.90;99.90;;;;;;4901780;29;20971;-80
2022/11/24 12:46:28;;;;;;;10.25;2.40;;;20.00;99.90;;;;;;4901286;29;20424;-83
2022/11/24 12:49:09;;;;;;;10.80;2.35;;;20.00;99.90;;;;;;4955594;28;20429;-86
2022/11/24 12:51:42;;;;;;;10.50;2.57;;;20.00;99.90;;;;;;5067670;28;20380;-78
2022/11/24 12:54:19;;;;;;;9.35;2.38;;;20.00;99.90;;;;;;5064729;28;20401;-82
2022/11/24 12:56:58;;;;;;;10.82;2.65;;;20.00;99.90;;;;;;5066826;28;20475;-79
2022/11/24 13:00:17;;;;;;;11.63;2.67;;;20.00;99.90;;;;;;5064890;28;20390;-90
2022/11/24 13:02:49;;;;;;;8.37;2.50;;;20.10;99.90;;;;;;4960506;28;20405;-91
2022/11/24 13:05:30;;;;;;;9.07;2.30;;;20.00;99.90;;;;;;4970971;28;20405;-78
2022/11/24 13:08:03;;;;;;;9.98;2.25;;;20.00;99.90;;;;;;4963825;28;20398;-78
2022/11/24 13:10:32;;;;;;;11.13;2.67;;;20.00;99.90;;;;;;4971264;28;20522;-78
2022/11/24 13:13:08;;;;;;;9.00;2.30;;;20.00;99.90;;;;;;4969866;28;20414;-82
2022/11/24 13:15:53;;;;;;;9.85;2.50;;;20.00;99.90;;;;;;4970909;28;20907;-77